createdAt,value
2022-12-08T00:01:35.728Z,1.92
2022-12-08T00:04:05.150Z,1.93
2022-12-08T00:06:56.303Z,1.87
2022-12-08T00:09:27.220Z,1.85
2022-12-08T00:11:58.128Z,1.86
2022-12-08T00:14:28.781Z,1.95
2022-12-08T00:16:56.976Z,2.01
2022-12-08T00:19:25.799Z,2.06
2022-12-08T00:21:57.979Z,2.16
2022-12-08T00:24:27.483Z,2.24
2022-12-08T00:26:55.473Z,2.31
2022-12-08T00:29:23.552Z,2.35
2022-12-08T00:31:52.055Z,2.41
2022-12-08T00:34:20.412Z,2.58
2022-12-08T00:36:48.629Z,2.68
2022-12-08T00:39:18.876Z,2.77
2022-12-08T00:42:04.462Z,2.88
2022-12-08T00:44:32.588Z,2.97
2022-12-08T00:47:00.644Z,3.06
2022-12-08T00:49:28.721Z,3.12
2022-12-08T00:51:56.800Z,3.21
2022-12-08T00:54:26.316Z,3.28
2022-12-08T00:56:54.442Z,3.32
2022-12-08T00:59:22.531Z,3.37
2022-12-08T01:01:50.500Z,3.42
2022-12-08T01:04:20.743Z,3.46
2022-12-08T01:06:50.272Z,3.47
2022-12-08T01:09:19.437Z,3.49
2022-12-08T01:11:49.913Z,3.48
2022-12-08T01:14:18.097Z,3.48
2022-12-08T01:16:46.173Z,3.44
2022-12-08T01:19:16.003Z,3.42
2022-12-08T01:21:44.856Z,3.40
2022-12-08T01:24:13.684Z,3.38
2022-12-08T01:26:41.853Z,3.38
2022-12-08T01:29:11.704Z,3.37
2022-12-08T01:31:40.256Z,3.37
2022-12-08T01:34:08.970Z,3.36
2022-12-08T01:36:38.537Z,3.28
2022-12-08T01:39:09.920Z,3.23
2022-12-08T01:41:39.490Z,3.20
2022-12-08T01:44:40.802Z,3.10
2022-12-08T01:47:10.914Z,3.04
2022-12-08T01:49:40.384Z,3.03
2022-12-08T01:52:15.467Z,2.97
2022-12-08T01:54:50.030Z,2.91
2022-12-08T01:57:21.862Z,2.88
2022-12-08T01:59:55.853Z,2.91
2022-12-08T02:02:27.710Z,2.96
2022-12-08T02:04:55.838Z,2.98
2022-12-08T02:07:25.108Z,2.98
2022-12-08T02:09:54.749Z,2.98
2022-12-08T02:12:22.781Z,2.99
2022-12-08T02:14:50.997Z,3.02
2022-12-08T02:17:34.735Z,3.05
2022-12-08T02:20:28.657Z,3.09
2022-12-08T02:23:06.072Z,3.07
2022-12-08T02:25:46.136Z,3.09
2022-12-08T02:28:38.619Z,3.13
2022-12-08T02:31:20.625Z,3.17
2022-12-08T02:34:26.413Z,3.18
2022-12-08T02:37:01.698Z,3.23
2022-12-08T02:39:42.403Z,3.24
2022-12-08T02:42:17.310Z,3.26
2022-12-08T02:44:54.197Z,3.20
2022-12-08T02:47:25.096Z,3.14
2022-12-08T02:49:56.472Z,3.07
2022-12-08T02:52:42.430Z,3.00
2022-12-08T02:55:19.217Z,2.93
2022-12-08T02:58:12.146Z,2.82
2022-12-08T03:01:07.480Z,2.76
2022-12-08T03:03:43.930Z,2.75
2022-12-08T03:06:24.403Z,2.74
2022-12-08T03:08:56.888Z,2.70
2022-12-08T03:11:29.796Z,2.68
2022-12-08T03:14:01.361Z,2.73
2022-12-08T03:16:31.979Z,2.74
2022-12-08T03:19:04.765Z,2.73
2022-12-08T03:21:36.933Z,2.74
2022-12-08T03:24:09.223Z,2.73
2022-12-08T03:26:44.785Z,2.73
2022-12-08T03:29:13.985Z,2.74
2022-12-08T03:31:48.465Z,2.69
2022-12-08T03:34:18.120Z,2.70
2022-12-08T03:36:47.541Z,2.70
2022-12-08T03:39:15.944Z,2.69
2022-12-08T03:41:44.106Z,2.69
2022-12-08T03:44:12.147Z,2.69
2022-12-08T03:46:40.186Z,2.68
2022-12-08T03:49:08.151Z,2.67
2022-12-08T03:51:36.104Z,2.66
2022-12-08T03:54:06.162Z,2.64
2022-12-08T03:56:36.437Z,2.66
2022-12-08T03:59:04.786Z,2.62
2022-12-08T04:01:33.086Z,2.53
2022-12-08T04:04:01.189Z,2.47
2022-12-08T04:06:29.156Z,2.49
2022-12-08T04:08:57.048Z,2.52
2022-12-08T04:11:26.432Z,2.54
2022-12-08T04:13:54.416Z,2.55
2022-12-08T04:16:24.936Z,2.53
2022-12-08T04:18:53.500Z,2.51
2022-12-08T04:21:21.633Z,2.46
2022-12-08T04:23:50.201Z,2.41
2022-12-08T04:26:18.673Z,2.41
2022-12-08T04:28:48.117Z,2.44
2022-12-08T04:31:16.753Z,2.45
2022-12-08T04:33:45.751Z,2.43
2022-12-08T04:36:13.866Z,2.44
2022-12-08T04:38:41.862Z,2.43
2022-12-08T04:41:10.112Z,2.45
2022-12-08T04:43:38.121Z,2.50
2022-12-08T04:46:09.508Z,2.53
2022-12-08T04:48:38.738Z,2.48
2022-12-08T04:51:07.459Z,2.45
2022-12-08T04:53:35.518Z,2.45
2022-12-08T04:56:03.452Z,2.40
2022-12-08T04:58:31.387Z,2.37
2022-12-08T05:00:59.353Z,2.39
2022-12-08T05:03:28.983Z,2.37
2022-12-08T05:05:57.099Z,2.35
2022-12-08T05:08:25.250Z,2.36
2022-12-08T05:10:53.463Z,2.34
2022-12-08T05:13:21.444Z,2.25
2022-12-08T05:15:49.412Z,2.21
2022-12-08T05:18:17.452Z,2.16
2022-12-08T05:20:46.899Z,2.18
2022-12-08T05:23:15.032Z,2.19
2022-12-08T05:25:43.120Z,2.20
2022-12-08T05:28:39.652Z,2.22
2022-12-08T05:30:59.097Z,2.25
2022-12-08T05:33:27.284Z,2.25
2022-12-08T05:35:56.620Z,2.26
2022-12-08T05:38:24.644Z,2.30
2022-12-08T05:40:52.641Z,2.31
2022-12-08T05:43:20.570Z,2.35
2022-12-08T05:45:48.926Z,2.38
2022-12-08T05:48:20.130Z,2.37
2022-12-08T05:50:49.061Z,2.37
2022-12-08T05:53:19.317Z,2.40
2022-12-08T05:55:47.904Z,2.45
2022-12-08T05:58:18.692Z,2.46
2022-12-08T06:00:47.820Z,2.44
2022-12-08T06:03:18.466Z,2.43
2022-12-08T06:05:47.980Z,2.46
2022-12-08T06:08:16.155Z,2.50
2022-12-08T06:10:46.467Z,2.50
2022-12-08T06:13:14.917Z,2.52
2022-12-08T06:15:43.536Z,2.60
2022-12-08T06:18:13.038Z,2.65
2022-12-08T06:20:41.160Z,2.66
2022-12-08T06:23:09.215Z,2.65
2022-12-08T06:25:37.308Z,2.60
2022-12-08T06:28:08.557Z,2.59
2022-12-08T06:30:36.735Z,2.55
2022-12-08T06:33:04.931Z,2.60
2022-12-08T06:35:32.881Z,2.65
2022-12-08T06:38:01.000Z,2.66
2022-12-08T06:40:29.180Z,2.72
2022-12-08T06:42:57.327Z,2.81
2022-12-08T06:45:26.742Z,2.87
2022-12-08T06:47:54.753Z,2.92
2022-12-08T06:50:22.731Z,2.95
2022-12-08T06:53:02.832Z,3.00
2022-12-08T06:55:57.777Z,3.12
2022-12-08T06:58:21.473Z,3.20
2022-12-08T07:00:51.072Z,3.24
2022-12-08T07:03:19.193Z,3.22
2022-12-08T07:05:47.749Z,3.19
2022-12-08T07:08:15.955Z,3.15
2022-12-08T07:10:44.071Z,3.22
2022-12-08T07:13:12.041Z,3.28
2022-12-08T07:15:40.083Z,3.33
2022-12-08T07:18:09.535Z,3.43
2022-12-08T07:20:37.541Z,3.52
2022-12-08T07:23:05.511Z,3.58
2022-12-08T07:25:33.791Z,3.53
2022-12-08T07:28:01.886Z,3.59
2022-12-08T07:30:30.030Z,3.60
2022-12-08T07:32:58.093Z,3.61
2022-12-08T07:35:27.514Z,3.66
2022-12-08T07:37:55.474Z,3.75
2022-12-08T07:40:23.478Z,3.78
2022-12-08T07:42:51.455Z,3.83
2022-12-08T07:45:19.434Z,3.85
2022-12-08T07:47:47.401Z,3.81
2022-12-08T07:50:15.454Z,3.88
2022-12-08T07:52:44.859Z,3.88
2022-12-08T07:55:13.050Z,3.94
2022-12-08T07:57:41.052Z,4.00
2022-12-08T08:00:10.295Z,4.12
2022-12-08T08:02:38.337Z,4.23
2022-12-08T08:05:07.496Z,4.34
2022-12-08T08:07:36.772Z,4.39
2022-12-08T08:10:08.351Z,4.41
2022-12-08T08:12:37.274Z,4.48
2022-12-08T08:15:07.516Z,4.51
2022-12-08T08:17:35.869Z,4.56
2022-12-08T08:20:07.003Z,4.63
2022-12-08T08:22:36.313Z,4.67
2022-12-08T08:25:04.543Z,4.91
2022-12-08T08:27:34.133Z,5.04
2022-12-08T08:30:05.273Z,5.16
2022-12-08T08:32:34.473Z,5.24
2022-12-08T08:35:02.836Z,5.33
2022-12-08T08:37:30.861Z,5.54
2022-12-08T08:39:58.805Z,5.71
2022-12-08T08:42:26.968Z,5.79
2022-12-08T08:44:56.303Z,5.89
2022-12-08T08:47:24.866Z,5.92
2022-12-08T08:49:52.854Z,5.89
2022-12-08T08:52:20.891Z,5.87
2022-12-08T08:54:48.874Z,5.87
2022-12-08T08:57:23.601Z,5.97
2022-12-08T08:59:53.538Z,6.03
2022-12-08T09:02:23.167Z,6.14
2022-12-08T09:04:51.195Z,6.32
2022-12-08T09:07:19.190Z,6.47
2022-12-08T09:09:47.196Z,6.58
2022-12-08T09:12:15.265Z,6.54
2022-12-08T09:14:43.189Z,6.55
2022-12-08T09:17:11.201Z,6.48
2022-12-08T09:19:40.516Z,6.40
2022-12-08T09:22:10.822Z,6.48
2022-12-08T09:24:39.687Z,6.51
2022-12-08T09:27:07.667Z,6.43
2022-12-08T09:29:36.488Z,6.42
2022-12-08T09:32:04.691Z,6.51
2022-12-08T09:34:32.996Z,6.75
2022-12-08T09:37:02.462Z,6.89
2022-12-08T09:39:30.438Z,7.03
2022-12-08T09:42:01.477Z,7.07
2022-12-08T09:44:51.536Z,7.15
2022-12-08T09:47:26.711Z,7.14
2022-12-08T09:50:05.456Z,7.03
2022-12-08T09:52:42.084Z,6.98
2022-12-08T09:55:18.337Z,7.03
2022-12-08T09:58:03.738Z,6.97
2022-12-08T10:00:31.717Z,6.96
2022-12-08T10:03:00.200Z,6.97
2022-12-08T10:05:30.138Z,6.93
2022-12-08T10:08:09.774Z,6.79
2022-12-08T10:10:43.320Z,6.80
2022-12-08T10:13:23.058Z,6.74
2022-12-08T10:16:07.416Z,6.78
2022-12-08T10:18:37.830Z,6.90
2022-12-08T10:21:16.027Z,6.97
2022-12-08T10:23:48.887Z,6.98
2022-12-08T10:26:19.507Z,7.06
2022-12-08T10:28:47.592Z,7.19
2022-12-08T10:31:18.451Z,7.27
2022-12-08T10:33:48.233Z,7.37
2022-12-08T10:36:16.729Z,7.43
2022-12-08T10:38:46.282Z,7.36
2022-12-08T10:41:18.343Z,7.47
2022-12-08T10:43:50.072Z,7.49
2022-12-08T10:46:21.073Z,7.54
2022-12-08T10:48:51.434Z,7.57
2022-12-08T10:51:30.505Z,7.62
2022-12-08T10:54:00.019Z,7.67
2022-12-08T10:56:29.839Z,7.69
2022-12-08T10:59:15.079Z,7.66
2022-12-08T11:01:47.153Z,7.82
2022-12-08T11:04:19.716Z,7.87
2022-12-08T11:06:49.208Z,7.99
2022-12-08T11:09:38.625Z,8.05
2022-12-08T11:12:14.518Z,8.05
2022-12-08T11:14:51.606Z,7.96
2022-12-08T11:17:27.347Z,8.00
2022-12-08T11:20:00.334Z,7.98
2022-12-08T11:22:32.297Z,8.03
2022-12-08T11:25:04.288Z,8.11
2022-12-08T11:27:35.165Z,8.17
2022-12-08T11:30:06.064Z,8.29
2022-12-08T11:32:40.765Z,8.39
2022-12-08T11:35:27.893Z,8.37
2022-12-08T11:38:08.063Z,8.37
2022-12-08T11:40:49.416Z,8.26
2022-12-08T11:43:21.701Z,8.15
2022-12-08T11:45:55.429Z,8.06
2022-12-08T11:48:29.039Z,8.01
2022-12-08T11:51:02.179Z,8.01
2022-12-08T11:53:37.416Z,8.02
2022-12-08T11:56:11.925Z,7.98
2022-12-08T11:58:44.907Z,7.97
2022-12-08T12:01:21.059Z,8.02
2022-12-08T12:03:59.149Z,8.11
2022-12-08T12:06:55.528Z,8.16
2022-12-08T12:09:38.958Z,8.17
2022-12-08T12:12:17.094Z,8.24
2022-12-08T12:15:12.640Z,8.16
2022-12-08T12:17:46.470Z,8.22
2022-12-08T12:20:20.731Z,8.11
2022-12-08T12:22:53.800Z,8.10
2022-12-08T12:25:24.858Z,8.02
2022-12-08T12:28:00.477Z,7.92
2022-12-08T12:30:33.382Z,7.87
2022-12-08T12:33:03.319Z,7.89
2022-12-08T12:35:35.797Z,7.81
2022-12-08T12:38:29.443Z,7.81
2022-12-08T12:41:05.912Z,7.78
2022-12-08T12:43:37.502Z,7.78
2022-12-08T12:46:54.393Z,7.81
2022-12-08T12:49:54.241Z,7.83
2022-12-08T12:52:44.940Z,7.82
2022-12-08T12:55:55.134Z,7.77
2022-12-08T12:58:40.897Z,7.79
2022-12-08T13:01:46.254Z,7.70
2022-12-08T13:04:16.426Z,7.64
2022-12-08T13:06:47.987Z,7.48
2022-12-08T13:09:25.417Z,7.47
2022-12-08T13:11:56.993Z,7.52
2022-12-08T13:14:30.238Z,7.57
2022-12-08T13:17:01.549Z,7.63
2022-12-08T13:19:34.498Z,7.65
2022-12-08T13:22:02.679Z,7.66
2022-12-08T13:24:34.209Z,7.61
2022-12-08T13:27:35.545Z,7.54
2022-12-08T13:30:41.211Z,7.52
2022-12-08T13:33:18.260Z,7.54
2022-12-08T13:35:57.921Z,7.53
2022-12-08T13:38:31.169Z,7.56
2022-12-08T13:41:04.366Z,7.58
2022-12-08T13:43:55.504Z,7.54
2022-12-08T13:51:07.037Z,7.43
2022-12-08T13:56:37.228Z,7.31
2022-12-08T13:58:09.751Z,7.33
2022-12-08T14:00:37.939Z,7.34
2022-12-08T14:03:05.998Z,7.36
2022-12-08T14:06:11.114Z,7.37
2022-12-08T14:11:37.668Z,7.49
2022-12-08T14:14:08.689Z,7.50
2022-12-08T14:16:41.092Z,7.52
2022-12-08T14:19:18.184Z,7.51
2022-12-08T14:21:52.956Z,7.49
2022-12-08T14:24:23.642Z,7.43
2022-12-08T14:26:53.954Z,7.39
2022-12-08T14:29:38.522Z,7.33
2022-12-08T14:32:08.652Z,7.28
2022-12-08T14:34:40.675Z,7.19
2022-12-08T14:37:14.230Z,7.10
2022-12-08T14:39:43.921Z,7.06
2022-12-08T14:42:23.444Z,7.01
2022-12-08T14:45:01.935Z,6.97
2022-12-08T14:47:31.765Z,6.95
2022-12-08T14:49:59.841Z,6.90
2022-12-08T14:52:29.225Z,6.86
2022-12-08T14:54:59.482Z,6.80
2022-12-08T14:57:34.663Z,6.69
2022-12-08T15:00:11.242Z,6.59
2022-12-08T15:02:45.753Z,6.47
2022-12-08T15:05:17.192Z,6.39
2022-12-08T15:07:51.144Z,6.28
2022-12-08T15:10:27.694Z,6.15
2022-12-08T15:13:06.042Z,6.03
2022-12-08T15:15:47.884Z,5.96
2022-12-08T15:18:18.646Z,5.90
2022-12-08T15:20:50.061Z,5.84
2022-12-08T15:23:29.651Z,5.79
2022-12-08T15:25:59.686Z,5.74
2022-12-08T15:28:30.387Z,5.73
2022-12-08T15:30:59.866Z,5.70
2022-12-08T15:33:28.275Z,5.69
2022-12-08T15:35:56.335Z,5.66
2022-12-08T15:38:26.184Z,5.67
2022-12-08T15:40:55.143Z,5.67
2022-12-08T15:43:24.478Z,5.67
2022-12-08T15:46:01.169Z,5.63
2022-12-08T15:48:30.957Z,5.60
2022-12-08T15:50:59.951Z,5.61
2022-12-08T15:53:27.901Z,5.66
2022-12-08T15:58:54.658Z,5.66
2022-12-08T16:01:24.563Z,5.66
2022-12-08T16:04:36.953Z,5.68
2022-12-08T16:07:20.220Z,5.68
2022-12-08T16:09:34.284Z,5.65
2022-12-08T16:12:20.128Z,5.66
2022-12-08T16:17:38.736Z,5.63
2022-12-08T16:22:59.555Z,5.60
2022-12-08T16:26:08.604Z,5.62
2022-12-08T16:28:52.853Z,5.55
2022-12-08T16:31:17.726Z,5.54
2022-12-08T16:33:49.523Z,5.51
2022-12-08T16:36:17.593Z,5.45
2022-12-08T16:38:45.623Z,5.39
2022-12-08T16:41:32.753Z,5.36
2022-12-08T16:44:02.968Z,5.34
2022-12-08T16:46:32.794Z,5.39
2022-12-08T16:49:01.038Z,5.37
2022-12-08T16:51:29.344Z,5.37
2022-12-08T16:53:58.486Z,5.42
2022-12-08T16:56:32.764Z,5.47
2022-12-08T16:59:01.521Z,5.51
2022-12-08T17:01:29.962Z,5.57
2022-12-08T17:06:52.987Z,5.66
2022-12-08T17:09:21.825Z,5.67
2022-12-08T17:11:49.910Z,5.72
2022-12-08T17:14:18.642Z,5.77
2022-12-08T17:16:47.187Z,5.76
2022-12-08T17:19:17.694Z,5.77
2022-12-08T17:21:46.223Z,5.79
2022-12-08T17:24:17.244Z,5.79
2022-12-08T17:26:49.941Z,5.83
2022-12-08T17:29:18.907Z,5.84
2022-12-08T17:31:47.115Z,5.87
2022-12-08T17:34:16.480Z,5.87
2022-12-08T17:36:44.758Z,5.89
2022-12-08T17:39:18.254Z,5.89
2022-12-08T17:41:47.289Z,5.89
2022-12-08T17:44:17.686Z,5.86
2022-12-08T17:46:52.668Z,5.83
2022-12-08T17:49:25.629Z,5.81
2022-12-08T17:51:56.540Z,5.82
2022-12-08T17:54:28.192Z,5.84
2022-12-08T17:57:00.022Z,5.82
2022-12-08T17:59:33.850Z,5.77
2022-12-08T18:02:02.378Z,5.75
2022-12-08T18:04:33.091Z,5.75
2022-12-08T18:07:17.739Z,5.75
2022-12-08T18:10:01.214Z,5.79
2022-12-08T18:12:31.787Z,5.80
2022-12-08T18:18:10.802Z,5.84
2022-12-08T18:20:49.240Z,5.85
2022-12-08T18:26:07.865Z,5.82
2022-12-08T18:28:37.034Z,5.83
2022-12-08T18:31:15.480Z,5.86
2022-12-08T18:33:45.179Z,5.89
2022-12-08T18:36:17.643Z,5.92
2022-12-08T18:38:46.040Z,5.95
2022-12-08T18:41:18.017Z,5.95
2022-12-08T18:43:46.033Z,5.97
2022-12-08T18:46:15.221Z,5.99
2022-12-08T18:48:46.004Z,6.01
2022-12-08T18:51:17.667Z,6.01
2022-12-08T18:53:47.024Z,5.99
2022-12-08T18:56:26.882Z,5.94
2022-12-08T18:59:01.332Z,5.94
2022-12-08T19:01:32.108Z,6.00
2022-12-08T19:06:51.606Z,6.01
2022-12-08T19:09:24.564Z,6.00
2022-12-08T19:11:52.757Z,6.04
2022-12-08T19:14:27.832Z,6.07
2022-12-08T19:16:56.985Z,6.01
2022-12-08T19:19:25.246Z,6.00
2022-12-08T19:21:54.987Z,5.98
2022-12-08T19:24:23.350Z,5.99
2022-12-08T19:26:51.829Z,5.99
2022-12-08T19:29:20.460Z,5.99
2022-12-08T19:31:49.676Z,5.96
2022-12-08T19:34:19.149Z,5.93
2022-12-08T19:36:47.444Z,5.92
2022-12-08T19:39:37.579Z,5.90
2022-12-08T19:42:24.593Z,5.88
2022-12-08T19:44:55.290Z,5.83
2022-12-08T19:47:25.057Z,5.79
2022-12-08T19:49:54.908Z,5.74
2022-12-08T19:52:24.007Z,5.68
2022-12-08T19:54:53.946Z,5.68
2022-12-08T19:57:22.622Z,5.65
2022-12-08T19:59:56.172Z,5.61
2022-12-08T20:02:29.116Z,5.58
2022-12-08T20:04:57.269Z,5.56
2022-12-08T20:07:25.249Z,5.56
2022-12-08T20:09:54.798Z,5.54
2022-12-08T20:12:22.957Z,5.53
2022-12-08T20:14:52.652Z,5.53
2022-12-08T20:17:20.763Z,5.52
2022-12-08T20:19:49.423Z,5.49
2022-12-08T20:22:17.623Z,5.53
2022-12-08T20:24:49.169Z,5.58
2022-12-08T20:27:24.836Z,5.59
2022-12-08T20:29:53.092Z,5.53
2022-12-08T20:32:21.812Z,5.58
2022-12-08T20:34:50.223Z,5.65
2022-12-08T20:37:19.638Z,5.71
2022-12-08T20:39:47.839Z,5.75
2022-12-08T20:42:16.122Z,5.82
2022-12-08T20:44:45.606Z,5.89
2022-12-08T20:47:13.887Z,5.94
2022-12-08T20:49:43.402Z,5.95
2022-12-08T20:52:11.565Z,6.02
2022-12-08T20:54:40.027Z,6.07
2022-12-08T20:57:08.157Z,6.10
2022-12-08T20:59:36.392Z,6.10
2022-12-08T21:02:06.713Z,6.13
2022-12-08T21:04:34.844Z,6.13
2022-12-08T21:07:03.388Z,6.17
2022-12-08T21:09:31.526Z,6.18
2022-12-08T21:11:59.591Z,6.18
2022-12-08T21:14:27.672Z,6.22
2022-12-08T21:16:56.281Z,6.23
2022-12-08T21:19:25.767Z,6.22
2022-12-08T21:21:53.847Z,6.23
2022-12-08T21:24:21.954Z,6.25
2022-12-08T21:26:50.157Z,6.26
2022-12-08T21:29:18.354Z,6.26
2022-12-08T21:31:46.546Z,6.27
2022-12-08T21:34:14.707Z,6.27
2022-12-08T21:36:44.321Z,6.27
2022-12-08T21:39:13.023Z,6.29
2022-12-08T21:41:59.194Z,6.28
2022-12-08T21:44:27.490Z,6.28
2022-12-08T21:46:55.640Z,6.29
2022-12-08T21:49:23.852Z,6.23
2022-12-08T21:51:53.458Z,6.15
2022-12-08T21:54:21.803Z,6.10
2022-12-08T21:56:50.837Z,6.06
2022-12-08T21:59:19.815Z,6.10
2022-12-08T22:01:47.999Z,6.11
2022-12-08T22:04:18.627Z,6.15
2022-12-08T22:06:47.051Z,6.19
2022-12-08T22:09:16.981Z,6.22
2022-12-08T22:11:45.583Z,6.27
2022-12-08T22:14:15.143Z,6.30
2022-12-08T22:16:44.119Z,6.32
2022-12-08T22:19:12.606Z,6.34
2022-12-08T22:21:41.099Z,6.35
2022-12-08T22:24:09.826Z,6.35
2022-12-08T22:26:39.355Z,6.35
2022-12-08T22:29:07.650Z,6.36
2022-12-08T22:31:35.806Z,6.37
2022-12-08T22:34:03.858Z,6.38
2022-12-08T22:36:32.052Z,6.38
2022-12-08T22:39:00.148Z,6.38
2022-12-08T22:41:28.478Z,6.38
2022-12-08T22:43:58.148Z,6.37
2022-12-08T22:46:27.912Z,6.37
2022-12-08T22:48:56.337Z,6.37
2022-12-08T22:51:26.729Z,6.36
2022-12-08T22:53:55.130Z,6.34
2022-12-08T22:56:23.317Z,6.32
2022-12-08T22:58:51.680Z,6.30
2022-12-08T23:01:26.264Z,6.27
2022-12-08T23:03:54.475Z,6.27
2022-12-08T23:06:22.918Z,6.26
2022-12-08T23:08:51.136Z,6.27
2022-12-08T23:11:20.608Z,6.25
2022-12-08T23:13:49.070Z,6.21
2022-12-08T23:16:17.940Z,6.18
2022-12-08T23:18:47.945Z,6.14
2022-12-08T23:21:18.217Z,6.05
2022-12-08T23:23:46.712Z,6.00
2022-12-08T23:26:20.963Z,5.91
2022-12-08T23:28:49.138Z,5.88
2022-12-08T23:31:17.806Z,5.84
2022-12-08T23:33:48.011Z,5.75
2022-12-08T23:36:17.821Z,5.69
2022-12-08T23:38:46.210Z,5.69
2022-12-08T23:41:16.017Z,5.63
2022-12-08T23:43:46.361Z,5.62
2022-12-08T23:46:15.819Z,5.66
2022-12-08T23:48:44.686Z,5.67
2022-12-08T23:51:15.102Z,5.64
2022-12-08T23:53:43.587Z,5.67
2022-12-08T23:56:15.821Z,5.68
2022-12-08T23:58:45.071Z,5.71
